Time;durP1;ratioP1;P1;durP2;ratioP2;P2;SDS_P1;SDS_P2;PMS_P1;PMS_P2;Temp;Humidity;BMP_temperature;BMP_pressure;BME280_temperature;BME280_humidity;BME280_pressure;Samples;Min_cycle;Max_cycle;Signal;HPM_P1;HPM_P2
2022/01/06 00:09:05;;;;;;;23.85;4.40;;;;;;;8.23;95.61;97493.28;5040014;28;20034;-93
2022/01/06 00:11:34;;;;;;;20.63;4.03;;;;;;;8.08;95.57;97456.81;5039164;28;20081;-93
2022/01/06 00:14:06;;;;;;;21.73;4.55;;;;;;;8.15;95.42;97469.72;5047363;28;20503;-93
2022/01/06 00:33:20;;;;;;;14.43;3.50;;;;;;;8.22;93.72;97468.59;5006545;28;20419;-92
2022/01/06 00:35:48;;;;;;;17.35;3.83;;;;;;;8.15;94.46;97469.72;4997843;28;20070;-92
2022/01/06 00:38:14;;;;;;;17.10;3.23;;;;;;;8.26;93.87;97492.31;4996073;28;20112;-92
2022/01/06 00:40:40;;;;;;;16.05;3.20;;;;;;;8.16;94.03;97483.88;4996077;28;20049;-94
2022/01/06 00:43:07;;;;;;;15.50;2.75;;;;;;;7.99;95.00;97468.59;4996603;28;20050;-94
2022/01/06 00:45:36;;;;;;;17.10;4.20;;;;;;;7.99;94.34;97472.09;4993470;28;20042;-94
2022/01/06 00:48:02;;;;;;;15.45;3.50;;;;;;;8.02;94.37;97479.97;4996335;28;20042;-94
2022/01/06 00:50:29;;;;;;;10.48;3.10;;;;;;;8.14;95.31;97509.53;4995440;28;20062;-94
2022/01/06 00:52:57;;;;;;;12.40;2.85;;;;;;;7.98;95.16;97482.75;4998236;28;20085;-94
2022/01/06 00:55:23;;;;;;;15.15;3.05;;;;;;;7.99;94.81;97495.94;5001930;28;20065;-93
2022/01/06 00:57:49;;;;;;;15.63;3.30;;;;;;;8.06;95.57;97514.25;5005202;28;20066;-93
2022/01/06 01:10:21;;;;;;;21.02;4.05;;;;;;;7.91;97.76;97529.75;5038790;28;20038;-94
2022/01/06 01:12:48;;;;;;;20.80;3.65;;;;;;;7.98;98.00;97543.63;5038828;28;20052;-93
2022/01/06 01:25:21;;;;;;;21.48;4.40;;;;;;;7.82;98.05;97543.34;5044071;28;20549;-95
2022/01/06 01:27:47;;;;;;;17.52;3.75;;;;;;;7.83;98.31;97553.00;5045818;28;20049;-91
2022/01/06 01:36:56;;;;;;;13.02;3.40;;;;;;;7.82;98.25;97540.69;5041245;28;20033;-95
2022/01/06 01:39:23;;;;;;;28.20;4.22;;;;;;;7.90;97.95;97554.50;5040773;28;20060;-92
2022/01/06 01:41:51;;;;;;;20.55;3.72;;;;;;;7.77;97.68;97532.06;5042442;28;20469;-93
2022/01/06 01:44:19;;;;;;;23.95;3.95;;;;;;;7.80;97.39;97547.81;5042433;28;20445;-94
2022/01/06 01:53:32;;;;;;;15.50;3.30;;;;;;;7.81;97.94;97554.84;5028232;28;20040;-95
2022/01/06 01:55:58;;;;;;;16.05;3.88;;;;;;;7.74;97.50;97542.72;5040741;28;20057;-95
2022/01/06 01:58:28;;;;;;;12.90;3.20;;;;;;;7.82;97.85;97564.50;5040866;28;20054;-93
2022/01/06 02:04:01;;;;;;;10.52;3.08;;;;;;;7.74;98.47;97569.19;5040847;28;19912;-94
2022/01/06 02:06:27;;;;;;;20.50;3.60;;;;;;;7.78;98.54;97584.06;5045925;28;20041;-94
2022/01/06 02:08:54;;;;;;;14.88;3.70;;;;;;;7.65;98.94;97566.88;5040858;28;20038;-94
2022/01/06 02:11:20;;;;;;;16.08;3.78;;;;;;;7.64;99.37;97575.75;5041116;28;20061;-93
2022/01/06 02:13:52;;;;;;;16.60;3.30;;;;;;;7.66;100.00;97576.56;5041932;28;20069;-94
2022/01/06 02:19:40;;;;;;;10.73;3.55;;;;;;;7.63;100.00;97593.38;5028037;28;20026;-94
2022/01/06 02:22:07;;;;;;;19.60;3.55;;;;;;;7.64;100.00;97602.22;5038282;28;20680;-92
2022/01/06 02:24:33;;;;;;;19.02;3.63;;;;;;;7.65;100.00;97611.84;5038171;28;20037;-92
2022/01/06 02:26:59;;;;;;;23.08;3.95;;;;;;;7.41;100.00;97586.16;5047313;28;20080;-95
2022/01/06 02:29:25;;;;;;;16.88;4.22;;;;;;;7.32;100.00;97596.19;5037928;28;20037;-94
2022/01/06 02:35:14;;;;;;;18.02;3.67;;;;;;;7.30;100.00;97595.38;5040874;28;20037;-94
2022/01/06 02:37:42;;;;;;;15.65;3.63;;;;;;;7.37;100.00;97607.47;5039412;28;20076;-95
2022/01/06 02:40:09;;;;;;;20.63;3.10;;;;;;;7.36;100.00;97603.97;5038756;28;20033;-96
2022/01/06 02:42:39;;;;;;;18.13;3.22;;;;;;;7.36;100.00;97609.25;5040056;28;20073;-93
2022/01/06 02:45:06;;;;;;;15.73;3.80;;;;;;;7.32;100.00;97612.91;5040225;28;20037;-95
2022/01/06 02:47:32;;;;;;;17.52;3.40;;;;;;;7.32;100.00;97614.72;5040124;28;20076;-93
2022/01/06 02:49:58;;;;;;;15.52;3.40;;;;;;;7.29;100.00;97618.31;5039952;28;20045;-93
2022/01/06 02:52:24;;;;;;;19.63;3.90;;;;;;;7.30;100.00;97616.53;5039048;28;20049;-94
2022/01/06 02:54:51;;;;;;;16.85;4.32;;;;;;;7.29;100.00;97620.09;5040862;28;20046;-95
2022/01/06 02:57:17;;;;;;;19.05;4.00;;;;;;;7.36;100.00;97624.28;5039876;28;20041;-93
2022/01/06 02:59:43;;;;;;;17.42;3.28;;;;;;;7.38;100.00;97633.88;5038199;28;20072;-93
2022/01/06 03:05:31;;;;;;;18.67;4.00;;;;;;;7.45;100.00;97658.34;5029037;28;20029;-94
2022/01/06 03:07:57;;;;;;;23.63;4.47;;;;;;;7.28;100.00;97636.88;5040808;28;20060;-93
2022/01/06 03:10:26;;;;;;;21.08;4.05;;;;;;;7.28;100.00;97639.53;5040998;28;20033;-93
2022/01/06 03:12:52;;;;;;;26.38;3.80;;;;;;;7.39;100.00;97656.78;5039851;28;20047;-90
2022/01/06 03:15:20;;;;;;;19.17;3.80;;;;;;;7.44;100.00;97671.63;5041172;28;20041;-94
2022/01/06 03:17:48;;;;;;;19.50;4.10;;;;;;;7.32;100.00;97651.72;5041133;28;20124;-93
2022/01/06 03:20:15;;;;;;;24.30;5.07;;;;;;;7.34;100.00;97658.69;5039700;28;20072;-94
2022/01/06 03:22:42;;;;;;;21.55;4.63;;;;;;;7.19;100.00;97644.19;5039888;28;20050;-95
2022/01/06 03:25:10;;;;;;;20.20;4.40;;;;;;;7.26;100.00;97667.78;5055947;28;20037;-96
2022/01/06 03:27:38;;;;;;;20.88;4.75;;;;;;;7.32;100.00;97679.03;5041426;28;20079;-94
2022/01/06 03:30:06;;;;;;;22.02;4.22;;;;;;;7.38;100.00;97693.84;5039487;28;20064;-94
2022/01/06 03:32:32;;;;;;;19.37;4.53;;;;;;;7.20;100.00;97669.72;5041858;28;20053;-94
2022/01/06 03:35:01;;;;;;;25.35;5.05;;;;;;;7.20;100.00;97664.44;5043942;28;20120;-95
2022/01/06 03:37:27;;;;;;;34.42;5.35;;;;;;;7.23;100.00;97678.47;5041942;28;20049;-91
2022/01/06 03:39:53;;;;;;;18.27;4.28;;;;;;;7.23;100.00;97683.75;5038295;28;20132;-95
2022/01/06 03:42:19;;;;;;;21.35;3.80;;;;;;;7.18;100.00;97679.47;5041125;28;20380;-92
2022/01/06 03:44:46;;;;;;;27.85;4.97;;;;;;;7.27;100.00;97695.97;5039299;28;20068;-95
2022/01/06 03:50:34;;;;;;;23.70;4.78;;;;;;;7.27;100.00;97722.41;5058382;28;20163;-94
2022/01/06 03:53:06;;;;;;;20.38;4.72;;;;;;;7.26;100.00;97731.25;5042205;28;20045;-95
2022/01/06 03:55:32;;;;;;;23.63;4.40;;;;;;;7.09;100.00;97715.88;5039728;28;20052;-93
2022/01/06 03:57:57;;;;;;;16.75;4.10;;;;;;;7.07;100.00;97704.50;5038847;28;20192;-93
2022/01/06 04:04:31;;;;;;;20.15;4.38;;;;;;;7.18;100.00;97740.28;5039363;28;20454;-95
2022/01/06 04:06:59;;;;;;;27.92;4.93;;;;;;;6.98;100.00;97718.84;5039183;28;20021;-94
2022/01/06 04:09:25;;;;;;;24.30;5.22;;;;;;;6.98;100.00;97726.78;5038327;28;20468;-96
2022/01/06 04:11:50;;;;;;;23.25;4.60;;;;;;;6.96;100.00;97745.34;5039998;28;20050;-92
2022/01/06 04:14:16;;;;;;;28.40;4.63;;;;;;;6.90;100.00;97739.38;5041146;28;20063;-94
2022/01/06 04:20:07;;;;;;;26.92;4.68;;;;;;;6.95;100.00;97763.88;5043241;28;20030;-93
2022/01/06 04:22:34;;;;;;;23.77;4.87;;;;;;;6.85;100.00;97772.97;5041867;28;20523;-94
2022/01/06 04:25:01;;;;;;;22.83;4.80;;;;;;;6.79;100.00;97777.53;5040864;28;20281;-95
2022/01/06 04:27:27;;;;;;;23.50;4.65;;;;;;;6.82;100.00;97791.56;5040974;28;20076;-94
2022/01/06 04:29:53;;;;;;;24.05;4.88;;;;;;;6.63;100.00;97781.50;5041952;28;20052;-95
2022/01/06 04:35:40;;;;;;;26.20;5.55;;;;;;;6.74;100.00;97808.50;5040473;28;20040;-94
2022/01/06 04:38:07;;;;;;;21.23;4.13;;;;;;;6.69;100.00;97791.91;5039405;28;20041;-95
2022/01/06 04:40:33;;;;;;;33.63;4.97;;;;;;;6.87;100.00;97813.44;5037767;28;20041;-94
2022/01/06 04:42:59;;;;;;;25.40;4.70;;;;;;;6.77;100.00;97832.19;5038856;28;20055;-91
2022/01/06 04:45:25;;;;;;;22.95;4.68;;;;;;;6.50;100.00;97809.16;5039519;28;20048;-93
2022/01/06 04:47:51;;;;;;;27.17;4.78;;;;;;;6.55;100.00;97823.13;5039575;28;20060;-95
2022/01/06 04:50:18;;;;;;;16.33;4.57;;;;;;;6.54;100.00;97826.66;5039840;28;20041;-92
2022/01/06 04:52:44;;;;;;;30.48;5.10;;;;;;;6.43;100.00;97839.28;5039665;28;20102;-94
2022/01/06 04:55:11;;;;;;;24.00;4.82;;;;;;;6.17;100.00;97839.00;5037801;28;20049;-92
2022/01/06 04:57:37;;;;;;;20.55;3.53;;;;;;;6.19;100.00;97852.16;5039729;28;20033;-92
2022/01/06 05:07:13;;;;;;;15.88;2.70;;;;;;;6.07;100.00;97881.47;5036995;28;20033;-95
2022/01/06 05:09:39;;;;;;;11.88;2.90;;;;;;;5.86;100.00;97853.81;5039153;28;20546;-91
2022/01/06 05:12:07;;;;;;;9.77;2.08;;;;;;;5.71;100.00;97861.16;5036601;28;20072;-93
2022/01/06 05:14:33;;;;;;;8.82;2.00;;;;;;;5.59;100.00;97868.47;5039529;28;20064;-91
2022/01/06 05:20:25;;;;;;;10.73;1.90;;;;;;;5.25;100.00;97871.81;5036367;28;20022;-93
2022/01/06 05:22:54;;;;;;;9.18;2.00;;;;;;;5.50;100.00;97898.53;5040379;28;20045;-95
2022/01/06 05:25:24;;;;;;;4.50;1.88;;;;;;;5.15;100.00;97863.22;5038641;28;20115;-92
2022/01/06 05:27:52;;;;;;;8.60;2.22;;;;;;;5.33;100.00;97885.69;5044183;28;20557;-94
2022/01/06 05:34:32;;;;;;;14.43;2.05;;;;;;;5.25;100.00;97921.91;5036231;28;20045;-93
2022/01/06 05:36:58;;;;;;;5.38;1.98;;;;;;;5.13;100.00;97907.19;5039946;28;20018;-94
2022/01/06 05:39:24;;;;;;;7.38;2.28;;;;;;;5.22;100.00;97904.34;5039950;28;20041;-95
2022/01/06 05:41:50;;;;;;;2.83;1.52;;;;;;;5.29;98.50;97902.47;5038013;28;20049;-93
2022/01/06 05:44:18;;;;;;;4.43;1.50;;;;;;;5.19;99.16;97903.56;5037276;28;20060;-92
2022/01/06 05:50:18;;;;;;;4.13;1.80;;;;;;;5.11;99.55;97933.56;5028401;28;20055;-94
2022/01/06 05:52:45;;;;;;;6.57;1.77;;;;;;;5.00;98.66;97908.31;5036872;28;20045;-93
2022/01/06 05:55:11;;;;;;;8.05;1.77;;;;;;;4.96;98.54;97898.72;5040684;28;20037;-94
2022/01/06 05:57:37;;;;;;;3.83;1.90;;;;;;;5.05;98.24;97899.44;5036714;28;20038;-96
2022/01/06 06:03:27;;;;;;;6.55;1.38;;;;;;;5.09;96.77;97919.53;5029210;28;20033;-93
2022/01/06 06:05:53;;;;;;;2.25;1.23;;;;;;;4.84;97.56;97905.97;5037685;28;20045;-92
2022/01/06 06:08:19;;;;;;;2.60;1.27;;;;;;;4.74;98.51;97917.53;5051010;28;20140;-93
2022/01/06 06:10:45;;;;;;;2.28;1.20;;;;;;;4.76;98.71;97930.69;5049890;28;20120;-93
2022/01/06 06:13:11;;;;;;;2.58;1.17;;;;;;;4.64;99.29;97942.28;5041442;28;20446;-94
2022/01/06 06:19:33;;;;;;;4.80;1.52;;;;;;;4.64;99.33;97953.72;5037430;28;20029;-93
2022/01/06 06:21:59;;;;;;;1.67;1.13;;;;;;;4.58;99.28;97945.91;5038217;28;20049;-91
2022/01/06 06:24:25;;;;;;;2.80;1.15;;;;;;;4.45;99.65;97942.59;5038014;28;20046;-92
2022/01/06 06:26:52;;;;;;;2.70;1.40;;;;;;;4.53;99.36;97947.72;5037954;28;20049;-91
2022/01/06 06:29:18;;;;;;;4.95;1.80;;;;;;;4.55;97.27;97948.56;5037570;28;20042;-91
2022/01/06 06:35:08;;;;;;;2.45;1.25;;;;;;;4.56;96.75;97934.53;5038448;28;20048;-94
2022/01/06 06:37:34;;;;;;;5.82;1.83;;;;;;;4.67;96.84;97976.50;5037243;28;20694;-91
2022/01/06 06:40:00;;;;;;;2.28;1.25;;;;;;;4.47;96.89;97939.97;5037334;28;20042;-92
2022/01/06 06:42:28;;;;;;;5.03;1.63;;;;;;;4.51;96.21;97965.31;5036950;28;20046;-92
2022/01/06 06:44:54;;;;;;;5.55;1.63;;;;;;;4.56;97.07;97962.63;5037602;28;20042;-91
2022/01/06 06:50:43;;;;;;;4.20;1.60;;;;;;;4.52;96.72;97953.91;5036843;28;20044;-94
2022/01/06 06:53:09;;;;;;;3.78;1.70;;;;;;;4.48;96.80;97957.47;5036939;28;20495;-93
2022/01/06 06:55:35;;;;;;;7.40;2.05;;;;;;;4.45;97.77;97962.81;5036940;28;20103;-94
2022/01/06 06:58:02;;;;;;;4.15;1.80;;;;;;;4.42;97.71;97950.53;5038189;28;20045;-94
2022/01/06 07:04:33;;;;;;;7.32;1.58;;;;;;;4.65;95.69;97992.31;5037251;28;20037;-95
2022/01/06 07:07:00;;;;;;;4.47;1.58;;;;;;;4.39;96.29;97963.75;5031103;28;20105;-92
2022/01/06 07:09:26;;;;;;;2.53;1.25;;;;;;;4.40;95.90;97964.63;5036535;28;20057;-92
2022/01/06 07:11:52;;;;;;;4.55;1.50;;;;;;;4.36;95.79;97957.66;5037092;28;20041;-93
2022/01/06 07:14:18;;;;;;;4.28;1.50;;;;;;;4.57;95.43;97993.31;5042089;28;20053;-92
2022/01/06 07:20:52;;;;;;;2.35;1.27;;;;;;;4.67;95.52;98006.31;5036112;28;20033;-94
2022/01/06 07:23:20;;;;;;;6.45;1.67;;;;;;;4.48;95.57;97971.50;5037829;28;20901;-94
2022/01/06 07:25:46;;;;;;;4.55;1.60;;;;;;;4.48;95.85;97968.00;5037954;28;20057;-95
2022/01/06 07:28:12;;;;;;;2.60;1.50;;;;;;;4.51;94.98;97978.47;5036558;28;20045;-93
2022/01/06 07:34:33;;;;;;;3.65;1.40;;;;;;;4.74;95.27;98007.97;5037767;28;20033;-95
2022/01/06 07:36:59;;;;;;;1.95;1.55;;;;;;;4.63;96.13;98015.16;5036936;28;20381;-92
2022/01/06 07:39:27;;;;;;;2.95;1.45;;;;;;;4.59;95.74;98017.88;5036223;28;20045;-93
2022/01/06 07:41:53;;;;;;;4.03;1.50;;;;;;;4.55;96.13;98014.41;5037139;28;20038;-94
2022/01/06 07:44:19;;;;;;;4.63;1.63;;;;;;;4.45;95.68;98011.06;5037211;28;20088;-93
2022/01/06 07:50:07;;;;;;;7.38;1.45;;;;;;;4.43;96.17;98030.41;5031388;28;20041;-91
2022/01/06 07:52:33;;;;;;;2.80;1.33;;;;;;;4.50;96.31;98034.69;5036992;28;20041;-94
2022/01/06 07:55:01;;;;;;;5.15;2.17;;;;;;;4.42;95.14;98013.72;5036397;28;20431;-93
2022/01/06 07:57:26;;;;;;;4.35;1.38;;;;;;;4.52;94.61;98038.16;5035816;28;20049;-92
2022/01/06 07:59:52;;;;;;;6.28;1.50;;;;;;;4.55;95.55;98038.09;5035688;28;20050;-93
2022/01/06 08:05:40;;;;;;;8.50;3.13;;;;;;;4.61;94.73;98047.69;5035000;28;20121;-95
2022/01/06 08:08:06;;;;;;;5.15;1.80;;;;;;;4.63;94.47;98043.28;5035798;28;20065;-93
2022/01/06 08:10:33;;;;;;;7.68;3.60;;;;;;;4.77;94.19;98070.28;5035499;28;20033;-93
2022/01/06 08:12:59;;;;;;;5.10;1.75;;;;;;;4.65;94.50;98044.97;5035891;28;20541;-93
2022/01/06 08:15:25;;;;;;;3.33;1.95;;;;;;;4.71;93.60;98052.78;5035846;28;20132;-94
2022/01/06 08:17:54;;;;;;;9.05;3.40;;;;;;;4.78;94.11;98065.88;5036239;28;20045;-94
2022/01/06 08:20:20;;;;;;;4.82;3.08;;;;;;;4.80;93.93;98067.59;5036340;28;20403;-94
2022/01/06 08:22:46;;;;;;;10.85;4.97;;;;;;;4.95;93.58;98092.84;5035873;28;20045;-94
2022/01/06 08:25:12;;;;;;;5.32;3.25;;;;;;;4.89;93.74;98072.69;5035795;28;20046;-92
2022/01/06 08:27:39;;;;;;;6.38;3.70;;;;;;;4.80;93.00;98062.31;5035786;28;20064;-94
2022/01/06 08:36:52;;;;;;;4.20;2.47;;;;;;;4.59;94.42;98060.00;5035003;28;20034;-94
2022/01/06 08:39:19;;;;;;;7.20;4.00;;;;;;;4.63;95.11;98070.47;5035295;28;20041;-93
2022/01/06 08:41:44;;;;;;;15.00;8.70;;;;;;;4.58;95.23;98060.91;5035991;28;20052;-94
2022/01/06 08:44:12;;;;;;;8.15;4.22;;;;;;;4.64;95.71;98081.84;5035682;28;20476;-94
2022/01/06 08:53:22;;;;;;;6.40;2.33;;;;;;;4.94;92.82;98109.50;5035676;28;20048;-95
2022/01/06 08:55:49;;;;;;;8.40;3.78;;;;;;;4.98;93.01;98089.28;5035280;28;20042;-94
2022/01/06 08:58:18;;;;;;;9.40;5.55;;;;;;;4.97;92.84;98077.88;5037631;28;20045;-93
2022/01/06 09:04:36;;;;;;;4.45;2.25;;;;;;;5.41;91.15;98120.22;5031343;28;20037;-95
2022/01/06 09:07:04;;;;;;;8.77;4.85;;;;;;;5.51;90.48;98121.81;5037752;28;20557;-94
2022/01/06 09:09:34;;;;;;;12.40;5.18;;;;;;;5.25;90.54;98082.69;5038955;28;20048;-94
2022/01/06 09:12:01;;;;;;;10.82;4.50;;;;;;;5.27;90.56;98088.78;5038823;28;20050;-94
2022/01/06 09:14:28;;;;;;;6.85;2.88;;;;;;;5.51;88.95;98114.75;5038041;28;20133;-92
2022/01/06 09:16:56;;;;;;;8.98;3.33;;;;;;;5.32;89.40;98095.72;5036922;28;20685;-93
2022/01/06 09:19:23;;;;;;;6.60;2.45;;;;;;;5.38;88.75;98096.50;5056693;28;20052;-95
2022/01/06 09:21:54;;;;;;;5.75;2.50;;;;;;;5.40;89.62;98102.63;5038356;28;20523;-94
2022/01/06 09:24:21;;;;;;;5.60;3.00;;;;;;;5.62;89.62;98138.31;5038005;28;20051;-94
2022/01/06 09:26:47;;;;;;;9.95;5.60;;;;;;;5.49;88.67;98102.50;5037776;28;20052;-95
2022/01/06 09:29:13;;;;;;;8.48;2.88;;;;;;;5.87;88.35;98148.41;5039114;28;20049;-93
2022/01/06 09:35:04;;;;;;;7.45;2.97;;;;;;;5.76;87.28;98107.25;5020462;28;20030;-95
2022/01/06 09:37:32;;;;;;;5.00;2.47;;;;;;;5.90;87.49;98114.94;5043705;28;20037;-95
2022/01/06 09:40:00;;;;;;;11.27;3.70;;;;;;;5.92;87.26;98114.88;5045327;28;20084;-96
2022/01/06 09:42:29;;;;;;;4.82;2.50;;;;;;;6.06;87.22;98112.88;5048003;28;20049;-95
2022/01/06 09:44:58;;;;;;;9.65;2.97;;;;;;;6.10;86.89;98117.22;5045815;28;20077;-95
2022/01/06 09:47:28;;;;;;;5.03;2.38;;;;;;;5.99;87.45;98113.91;5042811;28;20043;-94
2022/01/06 09:49:54;;;;;;;9.30;3.00;;;;;;;6.05;87.72;98140.19;5041353;28;20038;-93
2022/01/06 09:52:22;;;;;;;6.13;4.38;;;;;;;6.04;88.26;98137.59;5042938;28;20183;-96
2022/01/06 09:54:50;;;;;;;5.53;3.08;;;;;;;5.91;88.06;98132.50;5043210;28;20047;-94
2022/01/06 09:57:16;;;;;;;10.80;6.67;;;;;;;5.95;87.65;98126.28;5043474;28;20041;-94
2022/01/06 09:59:44;;;;;;;8.57;3.28;;;;;;;5.93;87.73;98122.78;5044091;28;20561;-95
2022/01/06 10:02:53;;;;;;;8.65;4.00;;;;;;;6.22;86.72;98166.25;5044969;28;20049;-93
2022/01/06 10:05:50;;;;;;;6.50;2.75;;;;;;;6.05;87.58;98124.38;5041881;28;20029;-94
2022/01/06 10:13:32;;;;;;;7.40;4.20;;;;;;;6.28;87.06;98157.34;4906669;29;20068;-94
2022/01/06 10:19:25;;;;;;;6.55;2.97;;;;;;;6.63;85.06;98130.19;4963790;28;20031;-95
2022/01/06 10:21:57;;;;;;;7.50;3.05;;;;;;;6.59;85.73;98120.59;4966499;29;20553;-96
2022/01/06 10:24:25;;;;;;;6.90;3.15;;;;;;;6.74;84.48;98133.50;4965877;29;20047;-94
2022/01/06 10:26:54;;;;;;;8.20;4.95;;;;;;;6.63;84.92;98129.34;4967829;29;20051;-94
2022/01/06 10:29:21;;;;;;;10.57;6.82;;;;;;;6.54;85.72;98139.19;4965112;29;20066;-93
2022/01/06 10:35:15;;;;;;;14.20;5.40;;;;;;;6.44;87.03;98123.56;4960758;29;20031;-93
2022/01/06 10:37:43;;;;;;;10.50;4.50;;;;;;;6.68;85.88;98141.56;4962329;29;20186;-94
2022/01/06 10:40:11;;;;;;;8.02;2.50;;;;;;;6.77;84.75;98128.16;4958206;29;20050;-94
2022/01/06 10:42:40;;;;;;;9.70;4.53;;;;;;;6.86;84.70;98135.00;5003872;28;20045;-93
2022/01/06 10:51:52;;;;;;;11.23;5.18;;;;;;;7.17;82.85;98150.16;5037139;28;20049;-92
2022/01/06 10:54:21;;;;;;;9.50;4.70;;;;;;;7.25;83.71;98137.63;5037276;28;20045;-94
2022/01/06 10:57:01;;;;;;;8.73;3.80;;;;;;;7.24;82.90;98124.44;5037177;28;20069;-92
2022/01/06 10:59:33;;;;;;;11.88;5.13;;;;;;;7.15;81.57;98123.75;5037539;28;20084;-94
2022/01/06 11:05:21;;;;;;;10.40;4.78;;;;;;;7.87;80.43;98163.44;5037540;28;20033;-94
2022/01/06 11:07:51;;;;;;;5.90;2.80;;;;;;;7.89;79.95;98136.91;5036979;28;20141;-93
2022/01/06 11:10:21;;;;;;;10.88;4.82;;;;;;;7.88;79.93;98143.13;5036587;28;20487;-93
2022/01/06 11:12:47;;;;;;;8.23;3.28;;;;;;;7.87;77.86;98136.97;5037229;28;20076;-92
2022/01/06 11:19:33;;;;;;;9.10;3.42;;;;;;;8.00;78.67;98154.25;5036530;28;20064;-94
2022/01/06 11:22:01;;;;;;;9.90;4.70;;;;;;;7.89;79.64;98151.00;5037307;28;20050;-93
2022/01/06 11:24:29;;;;;;;10.20;3.67;;;;;;;7.92;80.06;98145.66;5037119;28;20049;-94
2022/01/06 11:27:01;;;;;;;9.13;4.18;;;;;;;7.85;80.55;98125.56;5037979;28;20056;-94
2022/01/06 11:29:29;;;;;;;8.73;4.03;;;;;;;7.82;80.21;98112.38;5042188;28;20151;-94
2022/01/06 11:35:19;;;;;;;11.07;5.57;;;;;;;7.88;80.42;98132.53;5057038;28;20068;-91
2022/01/06 11:37:46;;;;;;;17.50;7.87;;;;;;;7.92;82.06;98155.38;5056555;28;20041;-94
2022/01/06 11:40:27;;;;;;;16.00;7.00;;;;;;;7.97;80.02;98143.72;5048644;28;20052;-95
2022/01/06 11:42:54;;;;;;;17.52;7.15;;;;;;;8.03;79.86;98156.81;5037920;28;20053;-93
2022/01/06 11:49:31;;;;;;;8.25;3.38;;;;;;;8.27;77.92;98146.47;5017845;28;20203;-94
2022/01/06 11:52:10;;;;;;;28.27;9.73;;;;;;;8.20;76.95;98126.38;5017024;28;20476;-94
2022/01/06 11:54:51;;;;;;;5.93;2.63;;;;;;;8.31;76.41;98126.94;5035668;28;20512;-94
2022/01/06 11:57:30;;;;;;;18.67;7.90;;;;;;;7.86;76.33;98116.69;5036352;28;20105;-95
2022/01/06 11:59:58;;;;;;;27.50;10.27;;;;;;;8.08;79.15;98139.94;5016042;28;20054;-93
2022/01/06 12:05:49;;;;;;;21.15;7.80;;;;;;;7.58;78.87;98116.53;5035818;28;20026;-93
2022/01/06 12:08:15;;;;;;;;;;;;;;;7.76;78.76;98139.91;5036973;28;20491;-92
2022/01/06 12:10:43;;;;;;;45.22;20.58;;;;;;;7.72;79.83;98111.75;5035375;28;19923;-93
2022/01/06 12:13:10;;;;;;;45.05;18.85;;;;;;;7.82;79.83;98128.25;5035992;28;20075;-94
2022/01/06 12:19:32;;;;;;;13.90;6.40;;;;;;;7.99;78.20;98139.25;5044979;28;20029;-94
2022/01/06 12:21:58;;;;;;;8.38;4.80;;;;;;;7.88;77.55;98125.44;5046747;28;20100;-95
2022/01/06 12:24:24;;;;;;;9.18;4.00;;;;;;;7.91;77.48;98132.44;5035405;28;20124;-94
2022/01/06 12:26:50;;;;;;;10.35;4.55;;;;;;;7.74;78.23;98107.31;5035579;28;20076;-93
2022/01/06 12:29:19;;;;;;;7.43;4.13;;;;;;;7.68;76.99;98135.72;5035614;28;20042;-95
2022/01/06 12:35:07;;;;;;;3.10;2.10;;;;;;;7.77;76.17;98143.41;5034614;28;20112;-94
2022/01/06 12:37:33;;;;;;;4.53;2.40;;;;;;;7.90;77.62;98147.47;5035127;28;20038;-93
2022/01/06 12:40:00;;;;;;;4.32;1.60;;;;;;;7.85;76.27;98154.66;5035586;28;20542;-94
2022/01/06 12:42:28;;;;;;;5.50;2.70;;;;;;;7.89;75.43;98161.59;5035022;28;20048;-93
2022/01/06 12:51:24;;;;;;;9.65;3.30;;;;;;;7.45;74.94;98150.38;5026809;28;20080;-96
2022/01/06 12:53:52;;;;;;;6.18;2.70;;;;;;;7.60;74.38;98173.78;5035434;28;20041;-94
2022/01/06 12:56:25;;;;;;;7.88;3.33;;;;;;;7.45;76.38;98160.94;5031946;28;20221;-93
2022/01/06 12:58:54;;;;;;;2.33;1.42;;;;;;;7.39;75.42;98169.91;5025457;28;20059;-94
2022/01/06 13:04:47;;;;;;;1.52;1.08;;;;;;;7.44;74.58;98179.50;5022801;28;20583;-92
2022/01/06 13:07:16;;;;;;;1.20;1.10;;;;;;;7.57;74.77;98178.31;5017751;28;20054;-93
2022/01/06 13:09:42;;;;;;;1.57;1.17;;;;;;;7.65;76.04;98199.28;5018230;28;20057;-96
2022/01/06 13:12:10;;;;;;;3.42;1.90;;;;;;;7.37;75.24;98170.84;5018277;28;20303;-96
2022/01/06 13:14:37;;;;;;;1.50;1.40;;;;;;;7.33;76.19;98163.88;5018659;28;20053;-95
2022/01/06 13:20:27;;;;;;;3.83;2.30;;;;;;;7.35;76.02;98188.50;5021308;28;20033;-95
2022/01/06 13:25:39;;;;;;;15.55;6.93;;;;;;;7.30;77.02;98203.63;5072816;28;20390;-92
2022/01/06 13:28:09;;;;;;;1.52;1.40;;;;;;;7.18;76.99;98186.28;5073526;28;20036;-94
2022/01/06 13:34:34;;;;;;;10.13;6.05;;;;;;;7.11;78.07;98224.31;5075376;28;20040;-94
2022/01/06 13:37:09;;;;;;;2.38;1.20;;;;;;;6.88;76.45;98201.03;5073140;28;20510;-94
2022/01/06 13:39:39;;;;;;;2.67;1.70;;;;;;;6.89;78.80;98195.69;5073740;28;20041;-93
2022/01/06 13:42:09;;;;;;;3.83;2.30;;;;;;;6.94;79.07;98198.25;5073311;28;20057;-94
2022/01/06 13:44:36;;;;;;;2.83;1.90;;;;;;;6.90;79.53;98205.38;5077216;28;20044;-95
2022/01/06 13:53:42;;;;;;;3.15;2.08;;;;;;;6.84;80.24;98209.94;5093302;27;20401;-95
2022/01/06 13:56:10;;;;;;;4.10;2.60;;;;;;;6.74;80.26;98209.25;5093075;28;20044;-95
2022/01/06 13:58:37;;;;;;;5.80;2.60;;;;;;;6.69;80.12;98217.28;5094035;28;20397;-94
2022/01/06 14:04:26;;;;;;;3.53;2.38;;;;;;;6.77;79.50;98220.63;5097110;28;20035;-95
2022/01/06 14:06:52;;;;;;;3.17;1.90;;;;;;;6.73;79.74;98199.59;5094669;28;20044;-91
2022/01/06 14:09:20;;;;;;;1.95;1.60;;;;;;;6.81;78.61;98215.28;5097472;28;20557;-93
2022/01/06 14:11:47;;;;;;;2.42;1.73;;;;;;;6.96;78.64;98234.34;5095601;28;20127;-93
2022/01/06 14:14:13;;;;;;;6.72;2.90;;;;;;;6.98;78.74;98234.28;5096263;28;20048;-95
2022/01/06 14:20:01;;;;;;;5.10;2.00;;;;;;;6.76;78.70;98223.28;5091059;28;20051;-93
2022/01/06 14:22:27;;;;;;;1.88;1.70;;;;;;;6.72;78.06;98217.22;5092330;28;20514;-93
2022/01/06 14:24:54;;;;;;;6.13;3.25;;;;;;;6.69;77.74;98221.69;5074501;28;20045;-94
2022/01/06 14:27:20;;;;;;;6.90;2.58;;;;;;;6.69;78.34;98238.41;5075280;28;20490;-94
2022/01/06 14:29:46;;;;;;;5.88;3.00;;;;;;;6.74;76.77;98248.88;5088221;28;20051;-94
2022/01/06 14:35:34;;;;;;;15.65;7.60;;;;;;;6.53;76.80;98236.97;5092817;28;20071;-93
2022/01/06 14:38:00;;;;;;;11.98;6.60;;;;;;;6.41;77.41;98230.16;5093484;28;20048;-94
2022/01/06 14:40:27;;;;;;;4.43;2.28;;;;;;;6.63;76.45;98256.16;5093145;28;20046;-92
2022/01/06 14:42:53;;;;;;;3.05;1.92;;;;;;;6.50;75.95;98259.03;5095137;28;20067;-94
2022/01/06 14:49:30;;;;;;;3.38;2.30;;;;;;;6.46;76.42;98267.94;5077798;28;20036;-93
2022/01/06 14:51:56;;;;;;;3.92;2.30;;;;;;;6.45;76.10;98275.88;5075614;28;20080;-92
2022/01/06 14:54:23;;;;;;;8.50;4.88;;;;;;;6.34;76.22;98270.78;5082587;28;20076;-92
2022/01/06 14:56:51;;;;;;;4.65;2.60;;;;;;;6.10;76.76;98261.53;5092215;28;20079;-91
2022/01/06 14:59:17;;;;;;;7.22;4.25;;;;;;;6.17;78.42;98279.00;5092505;28;20080;-94
2022/01/06 15:21:54;;;;;;;4.30;2.55;;;;;;;5.94;75.92;98296.09;5090509;28;20089;-94
2022/01/06 15:24:23;;;;;;;4.03;2.50;;;;;;;5.85;77.08;98290.91;5102457;28;20044;-94
2022/01/06 15:26:49;;;;;;;1.67;1.30;;;;;;;5.80;76.42;98284.84;5102009;28;20112;-91
2022/01/06 15:29:16;;;;;;;4.43;2.92;;;;;;;5.82;76.80;98280.41;5102723;28;20036;-92
2022/01/06 15:35:05;;;;;;;3.58;1.90;;;;;;;5.88;77.40;98296.16;5085077;28;20036;-93
2022/01/06 15:37:33;;;;;;;2.58;1.83;;;;;;;5.88;77.62;98308.50;5086758;28;20051;-93
2022/01/06 15:39:59;;;;;;;2.58;1.67;;;;;;;5.85;77.60;98317.31;5105975;28;20066;-94
2022/01/06 15:42:25;;;;;;;2.00;1.80;;;;;;;5.85;77.63;98332.28;5101853;28;20036;-92
2022/01/06 15:44:51;;;;;;;5.55;3.40;;;;;;;5.64;77.98;98321.16;5099270;28;20047;-91
2022/01/06 15:50:39;;;;;;;4.68;2.17;;;;;;;5.63;78.66;98332.59;5100672;28;20032;-91
2022/01/06 15:53:07;;;;;;;5.40;1.90;;;;;;;5.65;78.81;98341.34;5099191;28;20044;-93
2022/01/06 15:55:33;;;;;;;4.72;2.65;;;;;;;5.59;79.09;98337.94;5093184;28;20048;-93
2022/01/06 15:58:03;;;;;;;5.60;3.10;;;;;;;5.51;80.40;98330.13;5104223;28;20027;-93
2022/01/06 16:06:17;;;;;;;2.03;1.55;;;;;;;5.34;80.44;98333.00;5139929;27;20387;-95
2022/01/06 16:08:43;;;;;;;2.50;1.70;;;;;;;5.24;80.72;98347.19;5135275;27;20542;-92
2022/01/06 16:11:13;;;;;;;3.28;2.08;;;;;;;5.28;80.98;98354.16;5134646;27;20051;-94
2022/01/06 16:13:40;;;;;;;3.72;2.10;;;;;;;5.25;81.01;98347.16;5129855;28;20043;-92